Time;durP1;ratioP1;P1;durP2;ratioP2;P2;SDS_P1;SDS_P2;PMS_P1;PMS_P2;Temp;Humidity;BMP_temperature;BMP_pressure;BME280_temperature;BME280_humidity;BME280_pressure;Samples;Min_cycle;Max_cycle;Signal;HPM_P1;HPM_P2
2022/01/23 00:00:19;;;;;;;29.33;18.40;;;;;;;7.43;56.23;102328.19;5103165;28;20092;-72
2022/01/23 00:02:51;;;;;;;25.23;15.70;;;;;;;7.41;56.24;102328.28;5116915;28;20401;-72
2022/01/23 00:05:20;;;;;;;26.33;16.23;;;;;;;7.25;56.40;102322.22;5116663;28;20043;-73
2022/01/23 00:07:47;;;;;;;30.70;16.92;;;;;;;7.26;56.70;102320.44;5115333;28;20450;-72
2022/01/23 00:10:14;;;;;;;29.95;16.63;;;;;;;7.27;56.30;102316.78;5113615;28;20051;-72
2022/01/23 00:12:46;;;;;;;30.55;16.70;;;;;;;7.37;56.49;102320.56;5115354;28;20044;-73
2022/01/23 00:17:58;;;;;;;26.13;15.95;;;;;;;7.43;56.29;102338.88;5113526;28;20075;-72
2022/01/23 00:20:24;;;;;;;26.45;16.05;;;;;;;7.22;56.92;102348.25;5115245;28;20138;-72
2022/01/23 00:22:56;;;;;;;25.95;15.68;;;;;;;7.47;56.36;102342.19;5114702;28;20055;-72
2022/01/23 00:31:06;;;;;;;25.45;15.25;;;;;;;7.45;56.54;102336.94;5115285;28;20074;-72
2022/01/23 00:33:33;;;;;;;27.92;16.40;;;;;;;7.04;57.73;102329.78;5115911;28;20039;-74
2022/01/23 00:35:59;;;;;;;25.48;14.23;;;;;;;7.33;56.97;102330.59;5116299;28;20074;-73
2022/01/23 00:38:26;;;;;;;26.52;15.43;;;;;;;7.15;57.54;102332.66;5115206;28;20032;-73
2022/01/23 00:40:52;;;;;;;26.33;14.38;;;;;;;7.33;57.08;102343.09;5113916;28;20048;-74
2022/01/23 00:43:28;;;;;;;23.80;14.85;;;;;;;7.43;56.62;102331.72;5111917;28;20097;-74
2022/01/23 00:51:26;;;;;;;23.10;13.97;;;;;;;7.22;57.55;102325.06;5114232;28;20122;-73
2022/01/23 00:53:55;;;;;;;24.80;15.13;;;;;;;6.93;58.19;102329.63;5114384;28;20324;-73
2022/01/23 00:56:21;;;;;;;21.20;13.70;;;;;;;7.30;57.24;102335.28;5113518;28;20039;-73
2022/01/23 00:58:48;;;;;;;26.83;13.88;;;;;;;7.22;57.29;102334.91;5115230;28;20514;-71
2022/01/23 01:01:16;;;;;;;21.95;12.93;;;;;;;7.41;56.93;102324.75;5114322;28;20055;-72
2022/01/23 01:03:43;;;;;;;23.92;12.70;;;;;;;7.38;57.11;102324.94;5113509;28;20117;-72
2022/01/23 01:06:10;;;;;;;21.42;12.80;;;;;;;7.45;56.87;102317.41;5115964;28;20071;-73
2022/01/23 01:08:37;;;;;;;20.20;12.00;;;;;;;7.38;57.38;102312.44;5114046;28;20098;-72
2022/01/23 01:11:32;;;;;;;22.80;12.27;;;;;;;7.34;56.96;102318.09;5113847;28;20050;-73
2022/01/23 01:32:55;;;;;;;17.33;10.57;;;;;;;7.44;57.38;102303.19;5114182;28;20141;-73
2022/01/23 01:35:31;;;;;;;18.25;10.90;;;;;;;7.50;57.18;102316.16;5120137;28;20488;-73
2022/01/23 01:37:57;;;;;;;18.05;10.82;;;;;;;7.50;56.82;102318.81;5118413;28;20130;-75
2022/01/23 01:40:25;;;;;;;15.20;10.10;;;;;;;7.55;57.07;102327.38;5098143;28;20064;-73
2022/01/23 01:42:52;;;;;;;17.92;10.50;;;;;;;7.57;57.05;102336.16;5079051;28;20107;-73
2022/01/23 01:45:25;;;;;;;17.50;10.15;;;;;;;7.63;56.92;102346.41;5098509;28;20072;-73
2022/01/23 01:47:54;;;;;;;14.88;10.18;;;;;;;7.81;56.29;102351.47;5103423;28;20502;-73
2022/01/23 01:50:20;;;;;;;14.52;9.82;;;;;;;7.55;57.18;102346.06;5098846;28;20097;-73
2022/01/23 01:52:47;;;;;;;16.08;9.73;;;;;;;7.68;56.72;102339.94;5114118;27;20067;-73
2022/01/23 01:55:22;;;;;;;17.25;8.75;;;;;;;7.39;57.65;102342.66;5118686;27;20086;-74
2022/01/23 01:57:52;;;;;;;13.32;8.55;;;;;;;7.34;57.93;102339.47;5099558;28;20048;-73
2022/01/23 02:00:40;;;;;;;14.80;9.00;;;;;;;7.34;57.89;102328.78;5095838;28;20048;-73
2022/01/23 02:03:26;;;;;;;15.75;10.73;;;;;;;7.47;57.52;102329.69;5097888;28;20126;-73
2022/01/23 02:09:43;;;;;;;16.25;10.40;;;;;;;7.26;58.64;102339.97;5086420;28;20062;-73
2022/01/23 02:50:32;;;;;;;16.40;10.10;;;;;;;7.38;58.06;102331.16;5096984;28;20052;-73
2022/01/23 02:53:33;;;;;;;14.10;9.18;;;;;;;7.55;57.28;102338.06;5094208;28;20059;-73
2022/01/23 02:56:01;;;;;;;14.75;9.93;;;;;;;7.51;57.51;102343.72;5116202;28;20099;-73
2022/01/23 02:58:36;;;;;;;17.02;10.65;;;;;;;7.51;57.51;102346.38;5116764;28;20542;-74
2022/01/23 03:01:14;;;;;;;14.93;10.40;;;;;;;7.38;57.78;102339.16;5116030;28;20122;-73
2022/01/23 03:03:44;;;;;;;15.32;10.27;;;;;;;7.41;57.66;102338.09;5105368;28;20085;-73
2022/01/23 03:25:08;;;;;;;11.05;7.80;;;;;;;7.60;56.77;102360.00;5116038;28;20047;-73
2022/01/23 03:30:26;;;;;;;12.77;8.80;;;;;;;7.55;56.76;102354.06;5116599;28;20074;-73
2022/01/23 03:32:54;;;;;;;12.65;8.73;;;;;;;7.41;57.28;102360.31;5116054;28;20111;-73
2022/01/23 03:35:22;;;;;;;13.90;8.65;;;;;;;7.26;57.75;102357.81;5116515;28;20395;-73
2022/01/23 03:37:49;;;;;;;12.32;8.52;;;;;;;7.30;57.75;102362.84;5116106;28;20126;-73
2022/01/23 03:40:17;;;;;;;15.55;8.52;;;;;;;7.24;57.72;102357.03;5115837;28;20059;-73
2022/01/23 03:42:45;;;;;;;13.60;9.38;;;;;;;7.37;57.33;102361.47;5116063;28;20082;-73
2022/01/23 03:45:50;;;;;;;10.93;8.00;;;;;;;7.37;57.20;102368.63;5115345;28;20044;-73
2022/01/23 03:50:41;;;;;;;11.90;8.38;;;;;;;7.45;57.14;102357.44;5115083;28;19924;-73
2022/01/23 03:53:08;;;;;;;13.85;8.65;;;;;;;7.47;57.41;102360.88;5114275;28;20131;-73
2022/01/23 03:55:35;;;;;;;13.52;8.68;;;;;;;6.93;58.36;102370.50;5115543;28;20054;-73
2022/01/23 03:58:01;;;;;;;13.10;9.10;;;;;;;7.33;57.72;102359.97;5113927;28;20126;-73
2022/01/23 04:00:28;;;;;;;12.20;8.13;;;;;;;7.35;57.78;102357.19;5115111;28;20122;-73
2022/01/23 04:02:55;;;;;;;13.63;8.77;;;;;;;7.32;57.65;102354.72;5115085;28;20047;-73
2022/01/23 04:05:21;;;;;;;11.65;7.90;;;;;;;7.42;57.34;102358.50;5114406;28;20093;-73
2022/01/23 04:07:48;;;;;;;12.68;8.55;;;;;;;7.43;57.20;102358.41;5114541;28;20491;-73
2022/01/23 04:10:17;;;;;;;10.43;7.38;;;;;;;7.74;56.28;102358.19;5115085;28;20483;-73
2022/01/23 04:12:57;;;;;;;11.05;8.15;;;;;;;7.49;56.85;102370.50;5099135;28;20480;-73
2022/01/23 04:32:46;;;;;;;12.30;8.30;;;;;;;7.59;56.90;102401.00;5115650;28;20198;-73
2022/01/23 04:35:43;;;;;;;12.85;8.20;;;;;;;7.48;56.76;102389.31;5115091;28;20043;-73
2022/01/23 04:45:17;;;;;;;20.70;13.18;;;;;;;7.43;57.02;102378.94;5115491;28;20067;-72
2022/01/23 04:59:50;;;;;;;12.65;8.70;;;;;;;7.28;57.59;102394.09;5114078;28;20127;-73
2022/01/23 05:02:55;;;;;;;13.40;8.85;;;;;;;7.38;57.10;102405.06;5114743;28;20089;-73
2022/01/23 05:05:07;;;;;;;12.80;8.68;;;;;;;7.29;57.57;102408.28;5113865;28;20055;-73
2022/01/23 05:07:34;;;;;;;15.35;9.73;;;;;;;7.66;56.69;102410.31;5113455;28;20039;-73
2022/01/23 05:10:01;;;;;;;13.57;9.18;;;;;;;7.73;56.35;102400.09;5117295;28;20115;-73
2022/01/23 05:12:31;;;;;;;11.85;8.40;;;;;;;7.61;56.91;102407.09;5117638;28;20075;-73
2022/01/23 05:14:58;;;;;;;12.45;8.07;;;;;;;7.41;57.47;102410.19;5099494;28;20135;-73
2022/01/23 05:17:25;;;;;;;12.88;8.35;;;;;;;7.54;56.81;102410.28;5118722;28;20063;-73
2022/01/23 05:19:52;;;;;;;11.70;8.20;;;;;;;7.18;57.77;102420.50;5118124;28;20117;-74
2022/01/23 05:27:23;;;;;;;15.75;9.10;;;;;;;7.28;57.77;102422.59;5117322;28;20126;-73
2022/01/23 05:29:50;;;;;;;14.23;8.48;;;;;;;7.26;57.49;102416.53;5118457;28;20071;-73
2022/01/23 05:32:17;;;;;;;13.15;8.95;;;;;;;7.33;57.81;102420.53;5116200;28;20048;-73
2022/01/23 05:34:44;;;;;;;14.10;8.48;;;;;;;7.43;57.45;102418.97;5117546;28;20155;-73
2022/01/23 05:37:11;;;;;;;14.82;9.60;;;;;;;7.48;57.33;102416.84;5118555;28;20066;-73
2022/01/23 05:39:38;;;;;;;14.55;9.48;;;;;;;7.69;56.59;102425.28;5119425;28;20052;-74
2022/01/23 05:42:07;;;;;;;15.40;9.68;;;;;;;7.46;56.98;102424.09;5116627;28;20134;-73
2022/01/23 05:44:35;;;;;;;14.65;9.25;;;;;;;7.69;56.16;102424.44;5116204;28;20408;-73
2022/01/23 05:47:02;;;;;;;15.18;9.63;;;;;;;7.52;56.80;102422.84;5118566;28;20049;-73
2022/01/23 05:49:29;;;;;;;16.75;9.90;;;;;;;7.66;56.49;102421.00;5119267;28;20107;-73
2022/01/23 05:51:56;;;;;;;14.63;9.02;;;;;;;7.51;56.67;102426.50;5118645;28;20054;-73
2022/01/23 05:54:22;;;;;;;17.65;10.38;;;;;;;7.66;56.15;102420.16;5116995;28;20244;-74
2022/01/23 05:56:49;;;;;;;18.70;10.95;;;;;;;7.63;56.47;102421.19;5117509;28;20507;-73
2022/01/23 05:59:16;;;;;;;16.70;11.18;;;;;;;7.64;56.49;102430.94;5118011;28;20044;-73
2022/01/23 06:01:43;;;;;;;15.88;9.95;;;;;;;7.60;56.59;102432.09;5107072;28;20562;-74
2022/01/23 06:04:10;;;;;;;15.73;10.38;;;;;;;7.41;57.32;102435.09;5117176;28;20051;-73
2022/01/23 06:06:36;;;;;;;16.02;10.57;;;;;;;7.59;56.72;102435.72;5117045;28;20542;-73
2022/01/23 06:09:02;;;;;;;17.92;10.45;;;;;;;7.55;56.95;102439.53;5116151;28;20052;-73
2022/01/23 06:11:29;;;;;;;14.77;9.88;;;;;;;7.75;56.26;102446.28;5117526;28;20130;-73
2022/01/23 06:13:56;;;;;;;15.50;10.30;;;;;;;7.48;57.07;102448.91;5097318;28;20082;-73
2022/01/23 06:16:22;;;;;;;16.77;11.02;;;;;;;7.70;56.33;102442.19;5117637;28;20130;-73
2022/01/23 06:18:49;;;;;;;15.50;10.45;;;;;;;7.77;56.29;102447.00;5117900;28;20047;-73
2022/01/23 06:21:19;;;;;;;16.65;11.02;;;;;;;7.74;56.31;102454.38;5117182;28;20040;-73
2022/01/23 06:23:54;;;;;;;14.15;10.40;;;;;;;7.83;56.36;102451.13;5116288;28;20058;-72
2022/01/23 06:26:21;;;;;;;16.15;10.60;;;;;;;7.84;56.10;102455.53;5115787;28;20134;-73
2022/01/23 06:28:58;;;;;;;16.77;11.38;;;;;;;7.85;56.41;102457.25;5115499;28;20075;-73
2022/01/23 06:31:24;;;;;;;19.23;10.90;;;;;;;7.59;57.04;102461.56;5115470;28;20130;-73
2022/01/23 06:33:51;;;;;;;18.15;10.13;;;;;;;7.22;57.84;102452.34;5116332;28;20052;-73
2022/01/23 06:36:17;;;;;;;14.70;10.55;;;;;;;7.45;57.08;102454.44;5116294;28;20126;-73
2022/01/23 06:38:44;;;;;;;15.07;9.93;;;;;;;7.54;57.27;102461.88;5118203;28;20130;-73
2022/01/23 06:41:11;;;;;;;15.02;10.80;;;;;;;7.81;56.39;102453.03;5117498;28;20051;-73
2022/01/23 06:43:38;;;;;;;18.02;11.45;;;;;;;7.83;56.25;102459.13;5117199;28;20563;-73
2022/01/23 06:46:04;;;;;;;18.17;11.35;;;;;;;7.74;56.41;102457.03;5116525;28;20059;-73
2022/01/23 06:48:31;;;;;;;21.60;11.48;;;;;;;7.82;56.43;102466.28;5117474;28;20035;-73
2022/01/23 06:50:57;;;;;;;15.73;11.13;;;;;;;7.46;56.96;102461.47;5118265;28;20507;-73
2022/01/23 06:53:24;;;;;;;18.55;11.73;;;;;;;7.47;57.24;102457.03;5116903;28;20109;-73
2022/01/23 06:55:51;;;;;;;17.45;11.40;;;;;;;7.67;57.01;102459.25;5116766;28;20070;-73
2022/01/23 06:58:17;;;;;;;16.95;11.10;;;;;;;7.65;56.87;102455.84;5115737;27;20075;-73
2022/01/23 07:00:44;;;;;;;16.75;10.27;;;;;;;7.84;56.36;102463.53;5117415;28;20044;-73
2022/01/23 07:03:12;;;;;;;16.40;10.90;;;;;;;7.93;56.30;102459.44;5116713;28;20039;-73
2022/01/23 07:05:38;;;;;;;17.52;11.10;;;;;;;8.02;56.25;102465.03;5117658;28;20543;-73
2022/01/23 07:08:05;;;;;;;16.85;11.02;;;;;;;8.01;55.73;102465.13;5116450;28;20087;-73
2022/01/23 07:10:32;;;;;;;14.82;11.15;;;;;;;7.90;56.05;102468.50;5115396;28;20518;-73
2022/01/23 07:12:58;;;;;;;15.02;10.10;;;;;;;7.79;56.67;102468.31;5116112;28;20074;-73
2022/01/23 07:15:25;;;;;;;17.83;10.30;;;;;;;7.82;56.37;102470.78;5115928;28;20044;-73
2022/01/23 07:17:52;;;;;;;15.23;11.07;;;;;;;7.75;56.76;102473.00;5116488;28;20048;-73
2022/01/23 07:20:18;;;;;;;14.07;10.30;;;;;;;7.73;56.83;102482.06;5117954;28;20099;-72
2022/01/23 07:22:46;;;;;;;14.65;10.48;;;;;;;7.76;56.93;102497.91;5117843;28;20070;-72
2022/01/23 07:25:12;;;;;;;14.82;9.75;;;;;;;7.42;57.50;102498.19;5116891;28;20047;-71
2022/01/23 07:27:46;;;;;;;15.30;10.18;;;;;;;7.52;57.70;102498.50;5116940;28;20490;-71
2022/01/23 07:30:26;;;;;;;13.13;9.18;;;;;;;7.72;56.98;102504.41;5116048;28;20074;-72
2022/01/23 07:32:54;;;;;;;16.52;10.18;;;;;;;7.77;56.73;102508.47;5095662;28;20534;-71
2022/01/23 07:35:20;;;;;;;15.05;9.75;;;;;;;7.74;56.97;102515.81;5093932;28;20131;-71
2022/01/23 07:37:47;;;;;;;15.65;9.93;;;;;;;7.63;57.32;102522.69;5095825;28;20086;-71
2022/01/23 07:40:14;;;;;;;18.02;11.15;;;;;;;7.52;57.77;102519.00;5096397;28;20068;-72
2022/01/23 07:42:40;;;;;;;14.48;10.75;;;;;;;7.64;57.50;102513.75;5095838;28;20122;-72
2022/01/23 07:45:07;;;;;;;16.65;10.75;;;;;;;7.64;57.63;102518.25;5096066;28;20547;-72
2022/01/23 07:47:34;;;;;;;17.58;10.45;;;;;;;7.27;57.96;102520.53;5077205;28;20067;-72
2022/01/23 07:50:03;;;;;;;14.98;10.52;;;;;;;7.49;58.09;102527.19;5095698;28;20075;-73
2022/01/23 07:52:30;;;;;;;13.10;9.10;;;;;;;7.49;57.94;102524.53;5093988;28;20123;-72
2022/01/23 07:54:57;;;;;;;15.40;9.30;;;;;;;7.75;57.25;102521.09;5095733;28;20084;-72
2022/01/23 07:57:23;;;;;;;14.85;9.48;;;;;;;7.80;57.26;102526.13;5095785;28;20047;-72
2022/01/23 07:59:50;;;;;;;19.35;11.68;;;;;;;7.29;58.44;102523.09;5094538;28;20032;-72
2022/01/23 08:02:16;;;;;;;16.70;10.85;;;;;;;7.55;57.69;102525.00;5095059;28;20356;-72
2022/01/23 08:04:43;;;;;;;12.93;8.80;;;;;;;7.83;56.95;102523.25;5093750;28;20079;-72
2022/01/23 08:07:13;;;;;;;12.32;8.75;;;;;;;7.83;56.94;102523.25;5094537;28;20067;-72
2022/01/23 08:09:39;;;;;;;12.73;7.65;;;;;;;7.68;57.35;102518.91;5094991;28;20071;-71
2022/01/23 08:12:08;;;;;;;11.77;7.53;;;;;;;7.87;56.71;102523.00;5094862;28;20040;-72
2022/01/23 08:14:35;;;;;;;14.52;8.77;;;;;;;7.66;57.03;102527.00;5095136;28;20111;-72
2022/01/23 08:17:01;;;;;;;10.60;7.10;;;;;;;7.96;56.78;102534.91;5094089;28;20131;-72
2022/01/23 08:19:28;;;;;;;12.05;7.93;;;;;;;8.17;56.19;102542.50;5094263;28;20048;-72
2022/01/23 08:21:54;;;;;;;11.57;7.20;;;;;;;7.92;56.68;102537.91;5094713;28;20078;-72
2022/01/23 08:24:21;;;;;;;8.77;6.28;;;;;;;8.11;56.24;102536.59;5095139;28;20540;-72
2022/01/23 08:26:47;;;;;;;10.60;6.78;;;;;;;7.82;56.71;102542.94;5093022;28;20075;-73
2022/01/23 08:29:14;;;;;;;12.43;7.60;;;;;;;8.13;56.19;102536.50;5096051;28;20493;-73
2022/01/23 08:31:40;;;;;;;8.80;6.35;;;;;;;8.18;56.35;102539.72;5095650;28;20079;-73
2022/01/23 08:34:07;;;;;;;11.85;7.45;;;;;;;7.60;57.85;102538.94;5096222;28;20139;-72
2022/01/23 08:36:35;;;;;;;9.90;6.85;;;;;;;8.09;56.16;102543.00;5095116;28;20064;-73
2022/01/23 08:39:03;;;;;;;10.82;7.05;;;;;;;8.39;56.15;102553.50;5084236;28;20488;-77
2022/01/23 08:44:15;;;;;;;14.50;6.88;;;;;;;8.50;55.63;102556.31;5095737;28;20126;-78
2022/01/23 08:46:42;;;;;;;8.35;6.28;;;;;;;8.18;56.10;102560.25;5098946;28;20127;-78
2022/01/23 08:49:09;;;;;;;10.73;6.28;;;;;;;8.06;56.64;102552.06;5097964;28;20059;-77
2022/01/23 08:51:36;;;;;;;14.75;7.55;;;;;;;8.42;55.65;102555.97;5089459;28;20079;-77
2022/01/23 08:54:04;;;;;;;11.07;6.40;;;;;;;8.08;57.01;102551.97;5098346;28;20115;-77
2022/01/23 08:56:31;;;;;;;10.68;6.53;;;;;;;8.32;55.81;102554.84;5098522;28;20417;-78
2022/01/23 08:58:57;;;;;;;9.25;6.45;;;;;;;8.43;55.90;102565.69;5095781;28;20131;-76
2022/01/23 09:01:25;;;;;;;11.23;6.75;;;;;;;8.38;55.92;102567.84;5095771;28;20131;-77
2022/01/23 09:03:52;;;;;;;8.43;5.55;;;;;;;8.12;56.33;102567.72;5095484;28;20048;-77
2022/01/23 09:06:20;;;;;;;10.98;5.57;;;;;;;8.46;55.49;102565.50;5094756;28;20048;-78
2022/01/23 09:08:46;;;;;;;7.63;5.63;;;;;;;8.37;55.21;102564.31;5097211;28;20123;-80
2022/01/23 09:11:25;;;;;;;10.00;6.82;;;;;;;8.37;55.93;102563.44;5099908;28;20048;-78
2022/01/23 09:14:06;;;;;;;14.52;7.45;;;;;;;8.18;56.40;102561.09;5094166;28;20071;-76
2022/01/23 09:16:35;;;;;;;18.88;13.02;;;;;;;8.40;56.13;102565.94;5096531;28;20522;-76
2022/01/23 09:19:02;;;;;;;19.00;12.82;;;;;;;8.34;56.02;102564.50;5094982;28;20105;-77
2022/01/23 09:21:29;;;;;;;13.95;7.72;;;;;;;8.63;55.10;102568.88;5096079;28;20050;-77
2022/01/23 09:23:55;;;;;;;14.30;7.78;;;;;;;8.65;55.34;102569.66;5097748;28;20052;-78
2022/01/23 09:26:23;;;;;;;11.60;7.28;;;;;;;8.58;55.69;102574.56;5096805;28;20043;-77
2022/01/23 09:28:56;;;;;;;13.60;8.63;;;;;;;8.75;55.36;102576.09;5093978;28;20139;-78
2022/01/23 09:31:46;;;;;;;11.13;7.05;;;;;;;8.80;55.45;102584.66;5101960;28;20134;-74
2022/01/23 09:34:13;;;;;;;9.40;6.65;;;;;;;8.49;56.37;102573.31;5118044;27;20048;-76
2022/01/23 09:36:39;;;;;;;12.30;7.50;;;;;;;8.68;55.64;102578.34;5117605;28;20090;-70
2022/01/23 09:39:07;;;;;;;13.25;9.45;;;;;;;8.80;55.57;102584.66;5117071;28;20101;-71
2022/01/23 09:42:14;;;;;;;19.70;13.82;;;;;;;8.91;55.17;102582.13;5101699;28;20042;-71
2022/01/23 09:44:44;;;;;;;23.38;14.52;;;;;;;9.04;54.83;102582.16;5117242;28;20134;-73
2022/01/23 09:47:14;;;;;;;15.13;9.23;;;;;;;8.98;55.06;102583.41;5110551;28;20044;-72
2022/01/23 09:49:42;;;;;;;8.73;6.35;;;;;;;8.95;55.02;102585.44;5116793;28;20435;-72
2022/01/23 09:52:11;;;;;;;8.57;5.97;;;;;;;9.14;54.77;102583.25;5116632;28;20052;-72
2022/01/23 09:54:40;;;;;;;8.85;5.55;;;;;;;9.02;54.92;102576.91;5115830;28;20134;-73
2022/01/23 09:57:08;;;;;;;7.72;5.30;;;;;;;9.02;54.89;102574.25;5108259;28;20059;-74
2022/01/23 09:59:35;;;;;;;7.38;5.45;;;;;;;9.20;54.29;102584.66;5114803;28;20059;-74
2022/01/23 10:02:03;;;;;;;13.60;5.68;;;;;;;8.92;55.31;102588.31;5098778;28;20467;-74
2022/01/23 10:04:31;;;;;;;12.43;6.30;;;;;;;8.89;55.34;102592.09;5117469;28;20039;-75
2022/01/23 10:06:58;;;;;;;12.68;5.60;;;;;;;8.69;55.82;102584.53;5117281;28;20381;-76
2022/01/23 10:09:27;;;;;;;10.32;5.55;;;;;;;8.94;55.30;102583.75;5116696;28;20286;-74
2022/01/23 10:11:53;;;;;;;6.63;4.97;;;;;;;8.83;55.37;102597.84;5117468;28;20047;-74
2022/01/23 10:14:20;;;;;;;10.10;6.22;;;;;;;9.14;54.35;102596.63;5118080;28;20395;-74
2022/01/23 10:16:47;;;;;;;10.48;5.65;;;;;;;9.31;54.12;102600.84;5117040;28;20047;-75
2022/01/23 10:19:16;;;;;;;7.28;5.30;;;;;;;9.26;54.13;102600.31;5115699;28;20514;-74
2022/01/23 10:21:44;;;;;;;12.85;5.63;;;;;;;9.23;54.56;102596.00;5115614;27;20070;-74
2022/01/23 10:24:12;;;;;;;10.55;6.03;;;;;;;9.30;53.92;102596.44;5098906;28;20376;-72
2022/01/23 10:26:43;;;;;;;9.73;6.28;;;;;;;9.42;54.01;102592.06;5117578;28;20048;-73
2022/01/23 10:29:11;;;;;;;10.20;5.22;;;;;;;9.47;53.94;102579.19;5116928;28;20040;-72
2022/01/23 10:32:02;;;;;;;9.43;6.00;;;;;;;9.38;54.32;102579.88;5116546;28;20131;-73
2022/01/23 10:34:40;;;;;;;8.60;5.93;;;;;;;9.58;53.78;102576.66;5114582;28;20063;-72
2022/01/23 10:37:07;;;;;;;8.77;5.85;;;;;;;9.68;53.36;102574.16;5097747;28;20122;-73
2022/01/23 10:39:43;;;;;;;10.93;6.18;;;;;;;9.64;53.49;102578.88;5117291;28;20059;-72
2022/01/23 10:48:35;;;;;;;10.43;6.13;;;;;;;9.56;53.70;102565.16;5117306;28;20046;-72
2022/01/23 10:51:25;;;;;;;9.15;6.25;;;;;;;9.29;54.16;102570.63;5116227;28;20403;-72
2022/01/23 10:54:02;;;;;;;9.90;5.45;;;;;;;8.93;55.02;102563.28;5116263;28;20080;-72
2022/01/23 10:56:54;;;;;;;8.20;5.60;;;;;;;9.17;54.66;102576.81;5116470;28;20047;-76
2022/01/23 10:59:21;;;;;;;10.88;5.80;;;;;;;9.30;54.12;102578.56;5116939;28;20071;-77
2022/01/23 11:02:09;;;;;;;8.98;5.72;;;;;;;9.08;54.72;102579.16;5114838;28;20063;-76
2022/01/23 11:05:03;;;;;;;13.20;6.65;;;;;;;9.22;54.62;102588.06;5114455;28;20461;-74
2022/01/23 11:07:31;;;;;;;11.13;5.60;;;;;;;8.92;55.86;102586.53;5114081;28;20063;-74
2022/01/23 11:10:06;;;;;;;12.18;6.55;;;;;;;9.14;54.99;102580.56;5114446;28;20123;-77
2022/01/23 11:17:21;;;;;;;10.63;6.00;;;;;;;9.25;54.74;102591.41;5113402;28;20531;-76
2022/01/23 11:18:32;;;;;;;10.70;5.93;;;;;;;9.30;54.88;102599.13;5115630;28;20115;-75
2022/01/23 11:21:13;;;;;;;9.23;5.93;;;;;;;9.53;53.94;102592.16;5115332;28;20047;-75
2022/01/23 11:23:40;;;;;;;9.10;5.55;;;;;;;9.28;54.63;102582.31;5113247;28;20111;-74
2022/01/23 11:26:12;;;;;;;9.23;5.60;;;;;;;9.51;53.87;102576.22;5116328;28;20126;-75
2022/01/23 11:28:45;;;;;;;9.93;4.85;;;;;;;9.97;52.86;102580.97;5114786;28;20088;-75
2022/01/23 11:31:16;;;;;;;7.43;4.90;;;;;;;9.13;54.75;102573.50;5112904;28;20182;-73
2022/01/23 11:33:44;;;;;;;9.60;5.45;;;;;;;9.61;53.65;102575.56;5115285;28;20455;-72
2022/01/23 11:36:12;;;;;;;6.13;4.72;;;;;;;9.66;53.54;102579.63;5115911;28;20077;-74
2022/01/23 11:38:43;;;;;;;9.25;4.38;;;;;;;9.74;53.27;102576.41;5115522;28;20135;-72
2022/01/23 11:55:07;;;;;;;6.63;4.15;;;;;;;9.74;53.53;102581.75;5113311;28;20043;-73
2022/01/23 11:57:34;;;;;;;7.32;4.40;;;;;;;9.83;53.32;102577.56;5116849;28;20548;-72
2022/01/23 12:00:07;;;;;;;7.55;4.05;;;;;;;9.96;53.20;102571.22;5088116;28;20054;-72
2022/01/23 12:02:39;;;;;;;8.80;4.20;;;;;;;10.04;53.14;102589.44;5108805;22;20075;-73
2022/01/23 12:05:22;;;;;;;;;;;;;;;10.13;52.79;102588.78;5070445;28;20044;-73
2022/01/23 12:08:16;;;;;;;17.75;10.38;;;;;;;10.07;52.96;102589.22;5071305;28;19928;-74
2022/01/23 12:17:03;;;;;;;7.40;3.78;;;;;;;9.87;53.39;102587.97;5012146;28;20040;-74
2022/01/23 12:19:41;;;;;;;6.22;3.72;;;;;;;9.98;53.21;102574.63;5050992;28;20079;-75
2022/01/23 12:22:40;;;;;;;7.50;3.47;;;;;;;9.89;53.46;102579.78;5050669;28;20462;-75
2022/01/23 12:25:13;;;;;;;4.15;3.28;;;;;;;9.94;53.04;102583.88;5050579;28;20049;-75
2022/01/23 12:27:40;;;;;;;5.05;3.45;;;;;;;9.87;53.55;102584.44;5058422;28;20122;-75
2022/01/23 12:30:15;;;;;;;6.63;3.80;;;;;;;9.99;53.07;102580.84;5071439;28;20127;-75
2022/01/23 12:32:46;;;;;;;5.38;3.22;;;;;;;9.67;54.28;102583.16;5070618;28;20127;-75
2022/01/23 12:35:13;;;;;;;5.53;2.83;;;;;;;9.86;53.87;102580.03;5071010;28;20276;-75
2022/01/23 12:37:58;;;;;;;5.45;2.60;;;;;;;9.84;53.94;102574.78;5053452;28;20052;-76
2022/01/23 12:40:31;;;;;;;3.47;2.85;;;;;;;9.98;53.40;102576.47;5071278;28;20040;-75
2022/01/23 12:43:12;;;;;;;3.75;2.55;;;;;;;9.80;53.91;102570.59;5053467;28;20115;-75
2022/01/23 12:45:52;;;;;;;4.85;2.83;;;;;;;9.88;53.53;102570.91;5068824;28;20044;-75
2022/01/23 12:48:24;;;;;;;10.57;1.88;;;;;;;8.77;56.04;102572.34;5070571;28;20044;-76
2022/01/23 12:51:00;;;;;;;6.93;2.40;;;;;;;9.12;55.47;102562.88;5070456;28;20067;-76
2022/01/23 12:53:47;;;;;;;4.05;2.38;;;;;;;9.56;54.28;102573.19;5063133;28;20124;-76
2022/01/23 12:56:22;;;;;;;6.20;2.75;;;;;;;9.68;54.20;102574.16;5070841;28;20408;-76
2022/01/23 12:58:55;;;;;;;4.28;2.00;;;;;;;9.73;54.12;102574.69;5070494;28;20075;-76
2022/01/23 13:01:26;;;;;;;3.95;2.33;;;;;;;9.83;53.78;102570.38;5070806;28;20051;-75
2022/01/23 13:03:55;;;;;;;3.78;2.67;;;;;;;9.67;54.46;102567.09;5070153;28;20189;-75
2022/01/23 13:06:30;;;;;;;4.60;2.00;;;;;;;9.61;54.21;102570.19;5070841;28;20457;-76
2022/01/23 13:09:25;;;;;;;2.80;2.13;;;;;;;9.57;54.36;102556.16;5069682;28;20445;-76
2022/01/23 13:11:55;;;;;;;2.70;1.67;;;;;;;9.63;53.75;102565.59;5070610;28;20123;-76
2022/01/23 13:14:27;;;;;;;2.92;1.70;;;;;;;9.68;54.03;102560.75;5071077;28;20120;-75
2022/01/23 13:26:27;;;;;;;3.03;1.90;;;;;;;9.51;54.29;102570.88;5070937;28;20129;-76
2022/01/23 13:30:56;;;;;;;3.25;2.00;;;;;;;9.57;54.07;102566.88;5072206;28;20102;-76
2022/01/23 13:33:24;;;;;;;5.25;1.85;;;;;;;9.55;53.87;102566.13;5055621;28;20136;-76
2022/01/23 13:35:53;;;;;;;2.50;1.48;;;;;;;9.49;54.17;102577.28;5058457;28;20049;-72
2022/01/23 13:38:22;;;;;;;4.70;1.60;;;;;;;9.63;53.39;102581.66;5054888;28;20065;-72
2022/01/23 13:40:58;;;;;;;3.15;1.45;;;;;;;9.73;53.39;102580.91;5054860;28;20124;-72
2022/01/23 13:50:11;;;;;;;3.40;1.48;;;;;;;9.94;52.93;102588.38;5054716;28;20444;-72
2022/01/23 13:52:23;;;;;;;3.67;1.58;;;;;;;9.84;53.09;102582.81;5054341;28;20052;-72
2022/01/23 13:58:07;;;;;;;2.70;2.05;;;;;;;9.91;52.99;102573.38;5053457;28;20496;-72
2022/01/23 14:00:32;;;;;;;;;;;;;;;9.96;52.67;102576.59;5074156;28;20434;-71
2022/01/23 14:02:59;;;;;;;6.18;1.85;;;;;;;9.92;52.75;102579.56;5064713;28;19920;-71
2022/01/23 14:05:31;;;;;;;2.70;1.80;;;;;;;9.86;53.37;102582.72;5054317;28;20462;-71
2022/01/23 14:08:00;;;;;;;2.72;1.83;;;;;;;9.77;53.25;102582.41;5053636;28;20124;-72
2022/01/23 14:10:36;;;;;;;4.05;1.77;;;;;;;9.69;53.80;102578.56;5054135;28;20132;-72
2022/01/23 14:13:04;;;;;;;6.47;1.80;;;;;;;9.59;54.06;102580.19;5053887;28;20128;-71
2022/01/23 14:15:31;;;;;;;4.80;2.30;;;;;;;9.78;53.44;102591.28;5053759;28;20549;-72
2022/01/23 14:18:05;;;;;;;3.33;2.20;;;;;;;9.72;53.73;102589.06;5054410;28;20504;-72
2022/01/23 14:20:41;;;;;;;5.60;1.90;;;;;;;9.77;53.88;102594.94;5053950;28;20036;-72
2022/01/23 14:23:17;;;;;;;4.20;2.38;;;;;;;9.65;53.95;102582.44;5052449;28;20493;-72
2022/01/23 14:25:52;;;;;;;9.63;2.17;;;;;;;9.73;53.23;102597.00;5053108;28;20053;-72
2022/01/23 14:28:34;;;;;;;3.03;1.83;;;;;;;9.61;53.61;102586.25;5066211;28;20059;-72
2022/01/23 14:31:14;;;;;;;4.72;1.60;;;;;;;9.31;54.60;102607.06;5063203;28;20044;-72
2022/01/23 14:33:41;;;;;;;5.75;3.08;;;;;;;9.62;53.49;102599.56;5072261;28;20075;-72
2022/01/23 14:36:30;;;;;;;3.38;2.10;;;;;;;8.68;55.73;102609.56;5054498;28;20040;-72
2022/01/23 14:39:09;;;;;;;2.55;1.70;;;;;;;9.24;54.33;102599.56;5053924;28;20063;-72
2022/01/23 14:41:41;;;;;;;3.60;1.30;;;;;;;9.25;53.86;102596.78;5070276;28;20124;-72
2022/01/23 14:44:27;;;;;;;1.80;1.17;;;;;;;9.07;54.88;102598.84;5073691;28;20471;-72
2022/01/23 14:46:57;;;;;;;2.55;1.23;;;;;;;9.27;53.95;102599.34;5073566;28;20048;-72
2022/01/23 14:49:27;;;;;;;3.33;1.33;;;;;;;8.82;54.96;102594.31;5072929;28;20045;-72
2022/01/23 14:51:56;;;;;;;4.00;2.30;;;;;;;9.04;54.78;102599.06;5073511;28;20128;-72
2022/01/23 14:54:25;;;;;;;3.67;2.03;;;;;;;9.05;54.68;102591.88;5072433;28;20076;-72
2022/01/23 14:56:52;;;;;;;7.95;4.78;;;;;;;9.42;53.31;102605.47;5072903;28;20132;-71